createdAt,value
2024-03-26T00:00:42.256Z,10.27
2024-03-26T00:01:42.274Z,10.21
2024-03-26T00:02:42.219Z,10.26
2024-03-26T00:03:42.178Z,10.24
2024-03-26T00:04:42.191Z,10.20
2024-03-26T00:05:42.213Z,10.33
2024-03-26T00:06:42.273Z,10.24
2024-03-26T00:07:42.203Z,10.29
2024-03-26T00:08:42.233Z,10.24
2024-03-26T00:09:42.219Z,10.20
2024-03-26T00:10:42.253Z,10.23
2024-03-26T00:11:42.284Z,10.26
2024-03-26T00:12:42.232Z,10.19
2024-03-26T00:13:42.277Z,10.24
2024-03-26T00:14:42.296Z,10.20
2024-03-26T00:15:42.196Z,10.23
2024-03-26T00:16:42.299Z,10.23
2024-03-26T00:17:42.248Z,10.26
2024-03-26T00:18:42.226Z,10.23
2024-03-26T00:19:42.319Z,10.16
2024-03-26T00:20:42.276Z,10.13
2024-03-26T00:21:42.460Z,10.16
2024-03-26T00:22:42.290Z,10.12
2024-03-26T00:23:42.328Z,10.27
2024-03-26T00:24:42.261Z,9.99
2024-03-26T00:25:42.296Z,10.04
2024-03-26T00:26:42.363Z,10.03
2024-03-26T00:27:42.577Z,10.12
2024-03-26T00:28:44.012Z,10.10
2024-03-26T00:29:42.424Z,10.12
2024-03-26T00:30:42.392Z,10.07
2024-03-26T00:31:42.310Z,10.04
2024-03-26T00:32:42.302Z,10.10
2024-03-26T00:33:42.312Z,9.88
2024-03-26T00:34:42.405Z,10.02
2024-03-26T00:35:42.410Z,9.96
2024-03-26T00:36:42.410Z,9.86
2024-03-26T00:37:42.315Z,9.28
2024-03-26T00:38:42.307Z,8.79
2024-03-26T00:39:42.325Z,9.09
2024-03-26T00:40:42.362Z,9.77
2024-03-26T00:41:42.372Z,9.90
2024-03-26T00:42:42.371Z,9.90
2024-03-26T00:43:42.287Z,9.73
2024-03-26T00:44:42.344Z,9.69
2024-03-26T00:45:42.338Z,9.69
2024-03-26T00:46:42.374Z,9.29
2024-03-26T00:47:42.537Z,9.06
2024-03-26T00:48:42.487Z,8.69
2024-03-26T00:49:42.433Z,8.95
2024-03-26T00:50:42.524Z,8.92
2024-03-26T00:51:42.511Z,8.98
2024-03-26T00:52:42.614Z,8.52
2024-03-26T00:53:44.501Z,8.69
2024-03-26T00:54:42.676Z,8.76
2024-03-26T00:55:42.682Z,8.24
2024-03-26T00:56:42.809Z,7.96
2024-03-26T00:57:42.873Z,7.62
2024-03-26T00:58:42.860Z,7.96
2024-03-26T00:59:42.914Z,8.14
2024-03-26T01:00:42.956Z,8.41
2024-03-26T09:39:52.056Z,15.53
2024-03-26T09:40:52.082Z,15.72
2024-03-26T09:41:52.039Z,16.00
2024-03-26T09:42:52.073Z,15.49
2024-03-26T09:43:52.002Z,15.94
2024-03-26T09:44:58.537Z,15.54
2024-03-26T09:45:53.015Z,15.26
2024-03-26T09:46:52.045Z,15.08
2024-03-26T09:47:52.025Z,15.79
2024-03-26T09:48:52.009Z,15.66
2024-03-26T09:49:52.012Z,15.63
2024-03-26T09:50:52.034Z,15.18
2024-03-26T09:51:52.129Z,15.28
2024-03-26T09:52:52.048Z,15.66
2024-03-26T09:53:52.039Z,15.10
2024-03-26T09:54:52.037Z,15.22
2024-03-26T09:55:52.048Z,14.85
2024-03-26T09:56:52.215Z,15.13
2024-03-26T09:57:52.288Z,15.72
2024-03-26T09:58:52.203Z,16.27
2024-03-26T09:59:52.506Z,15.83
2024-03-26T10:00:52.216Z,15.29
2024-03-26T10:01:52.175Z,15.09
2024-03-26T10:02:52.206Z,15.05
2024-03-26T10:03:52.292Z,15.12
2024-03-26T10:04:52.305Z,15.35
2024-03-26T10:05:52.386Z,14.51
2024-03-26T10:06:52.416Z,14.62
2024-03-26T10:07:52.436Z,14.62
2024-03-26T10:08:52.469Z,15.36
2024-03-26T10:09:52.553Z,14.81
2024-03-26T10:10:52.519Z,15.10
2024-03-26T10:11:52.578Z,15.42
2024-03-26T10:12:52.572Z,15.10
2024-03-26T10:13:52.642Z,15.89
2024-03-26T10:14:52.691Z,15.97
2024-03-26T10:15:52.688Z,15.74
2024-03-26T10:16:52.767Z,14.91
2024-03-26T10:17:52.748Z,15.03
2024-03-26T10:18:52.848Z,14.99
2024-03-26T10:19:52.790Z,14.79
2024-03-26T10:20:52.901Z,14.83
2024-03-26T10:21:53.368Z,14.83
2024-03-26T10:22:52.909Z,14.98
2024-03-26T10:23:52.964Z,15.02
2024-03-26T10:24:53.021Z,15.69
2024-03-26T10:25:53.047Z,15.46
2024-03-26T10:26:53.111Z,15.00
2024-03-26T10:27:53.122Z,14.99
2024-03-26T10:28:53.153Z,15.26
2024-03-26T10:29:53.172Z,15.73
